createdAt,value
2018-07-16T00:00:44.918Z,2.90
2018-07-16T00:03:13.222Z,3.03
2018-07-16T00:05:41.571Z,2.93
2018-07-16T00:08:09.829Z,2.80
2018-07-16T00:10:38.133Z,2.70
2018-07-16T00:13:06.434Z,2.70
2018-07-16T00:15:34.714Z,3.00
2018-07-16T00:18:03.010Z,2.97
2018-07-16T00:20:31.276Z,3.03
2018-07-16T00:22:59.545Z,2.70
2018-07-16T00:25:28.312Z,3.23
2018-07-16T00:27:56.615Z,2.80
2018-07-16T00:30:24.858Z,3.10
2018-07-16T00:32:53.153Z,2.67
2018-07-16T00:35:21.459Z,3.00
2018-07-16T00:37:49.763Z,3.10
2018-07-16T00:40:18.121Z,3.13
2018-07-16T00:42:46.430Z,2.90
2018-07-16T00:45:14.849Z,2.90
2018-07-16T00:47:43.090Z,2.63
2018-07-16T00:50:11.359Z,3.10
2018-07-16T00:52:39.677Z,2.80
2018-07-16T00:55:08.054Z,3.47
2018-07-16T00:57:36.329Z,2.80
2018-07-16T01:00:04.618Z,2.90
2018-07-16T01:02:32.937Z,3.27
2018-07-16T01:05:01.378Z,2.87
2018-07-16T01:07:29.623Z,2.80
2018-07-16T01:09:57.946Z,3.13
2018-07-16T01:12:26.217Z,3.00
2018-07-16T01:14:54.474Z,2.80
2018-07-16T01:17:22.734Z,3.07
2018-07-16T01:19:51.034Z,3.20
2018-07-16T01:22:19.326Z,3.00
2018-07-16T01:24:47.589Z,3.07
2018-07-16T01:27:15.837Z,3.10
2018-07-16T01:29:44.103Z,3.03
2018-07-16T01:32:12.361Z,3.17
2018-07-16T01:34:40.661Z,2.70
2018-07-16T01:37:08.665Z,2.90
2018-07-16T01:39:36.937Z,3.20
2018-07-16T01:42:05.229Z,3.10
2018-07-16T01:44:33.497Z,3.00
2018-07-16T01:47:01.781Z,2.80
2018-07-16T01:49:30.145Z,2.70
2018-07-16T01:51:58.585Z,2.93
2018-07-16T01:54:26.882Z,3.30
2018-07-16T01:56:55.160Z,2.90
2018-07-16T01:59:23.429Z,2.67
2018-07-16T02:01:51.736Z,2.90
2018-07-16T02:04:20.065Z,3.07
2018-07-16T02:06:48.323Z,3.07
2018-07-16T02:09:16.577Z,4.00
2018-07-16T02:11:44.901Z,2.90
2018-07-16T02:14:13.166Z,3.33
2018-07-16T02:16:41.461Z,3.37
2018-07-16T02:19:09.731Z,2.97
2018-07-16T02:21:37.994Z,2.93
2018-07-16T02:24:06.326Z,2.83
2018-07-16T02:26:34.605Z,3.00
2018-07-16T02:29:02.872Z,3.20
2018-07-16T02:31:31.186Z,2.73
2018-07-16T02:33:59.533Z,2.70
2018-07-16T02:36:27.789Z,2.87
2018-07-16T02:38:56.098Z,2.90
2018-07-16T02:41:24.363Z,2.80
2018-07-16T02:43:52.664Z,3.23
2018-07-16T02:46:20.958Z,2.53
2018-07-16T02:48:49.237Z,2.97
2018-07-16T02:51:17.514Z,3.03
2018-07-16T02:53:45.826Z,3.10
2018-07-16T02:56:14.131Z,3.30
2018-07-16T02:58:42.453Z,3.37
2018-07-16T03:01:10.739Z,3.10
2018-07-16T03:03:39.066Z,2.90
2018-07-16T03:06:07.333Z,3.03
2018-07-16T03:08:35.579Z,2.80
2018-07-16T03:11:03.910Z,3.10
2018-07-16T03:13:32.885Z,2.60
2018-07-16T03:16:01.207Z,3.30
2018-07-16T03:18:29.478Z,3.03
2018-07-16T03:20:57.727Z,3.10
2018-07-16T03:23:26.057Z,3.13
2018-07-16T03:25:54.322Z,2.87
2018-07-16T03:28:22.605Z,3.03
2018-07-16T03:30:51.138Z,3.10
2018-07-16T03:33:19.413Z,3.13
2018-07-16T03:35:47.669Z,2.90
2018-07-16T03:38:15.959Z,2.80
2018-07-16T03:40:44.260Z,3.17
2018-07-16T03:43:12.527Z,2.63
2018-07-16T03:45:40.805Z,3.40
2018-07-16T03:48:09.161Z,3.20
2018-07-16T03:50:37.396Z,3.40
2018-07-16T03:53:06.074Z,3.40
2018-07-16T03:55:34.345Z,3.13
2018-07-16T03:58:02.613Z,2.90
2018-07-16T04:00:30.923Z,3.00
2018-07-16T04:02:59.238Z,3.40
2018-07-16T04:05:27.517Z,2.73
2018-07-16T04:07:55.795Z,3.17
2018-07-16T04:10:24.132Z,2.93
2018-07-16T04:12:52.137Z,3.20
2018-07-16T04:15:20.590Z,2.97
2018-07-16T04:17:49.018Z,3.37
2018-07-16T04:20:17.293Z,3.10
2018-07-16T04:22:45.557Z,2.67
2018-07-16T04:25:13.824Z,2.77
2018-07-16T04:27:42.085Z,3.87
2018-07-16T04:30:10.384Z,2.93
2018-07-16T04:32:38.635Z,3.00
2018-07-16T04:35:06.945Z,2.97
2018-07-16T04:37:35.208Z,2.87
2018-07-16T04:40:03.538Z,2.90
2018-07-16T04:42:31.773Z,2.90
2018-07-16T04:45:00.060Z,3.23
2018-07-16T04:47:28.354Z,3.00
2018-07-16T04:49:56.598Z,3.10
2018-07-16T04:52:24.938Z,3.00
2018-07-16T04:54:53.193Z,3.30
2018-07-16T04:57:21.461Z,2.77
2018-07-16T04:59:49.718Z,3.13
2018-07-16T05:02:17.961Z,2.87
2018-07-16T05:04:46.321Z,3.20
2018-07-16T05:07:14.582Z,2.97
2018-07-16T05:09:43.057Z,2.73
2018-07-16T05:12:11.353Z,2.90
2018-07-16T05:14:39.620Z,3.20
2018-07-16T05:17:07.875Z,3.00
2018-07-16T05:19:36.146Z,3.67
2018-07-16T05:22:04.431Z,3.20
2018-07-16T05:24:32.744Z,2.90
2018-07-16T05:27:01.034Z,2.90
2018-07-16T05:29:29.333Z,3.10
2018-07-16T05:31:57.753Z,2.93
2018-07-16T05:34:26.297Z,3.03
2018-07-16T05:36:54.593Z,2.80
2018-07-16T05:39:23.125Z,4.20
2018-07-16T05:41:51.481Z,5.83
2018-07-16T05:44:19.824Z,5.63
2018-07-16T05:46:48.103Z,4.53
2018-07-16T05:49:16.658Z,4.40
2018-07-16T05:51:45.205Z,4.33
2018-07-16T05:54:13.456Z,4.00
2018-07-16T05:56:41.833Z,4.20
2018-07-16T05:59:10.105Z,4.53
2018-07-16T06:01:38.369Z,4.40
2018-07-16T06:04:06.670Z,6.00
2018-07-16T06:06:34.939Z,5.10
2018-07-16T06:09:05.283Z,4.30
2018-07-16T06:11:34.972Z,4.00
2018-07-16T06:14:04.781Z,4.03
2018-07-16T06:16:33.079Z,4.23
2018-07-16T06:19:01.357Z,5.27
2018-07-16T06:21:29.974Z,3.80
2018-07-16T06:23:58.250Z,4.53
2018-07-16T06:26:26.553Z,5.07
2018-07-16T06:28:54.838Z,4.07
2018-07-16T06:31:23.105Z,4.07
2018-07-16T06:33:51.448Z,4.40
2018-07-16T06:36:19.890Z,3.60
2018-07-16T06:38:48.321Z,3.77
2018-07-16T06:41:16.817Z,3.70
2018-07-16T06:43:44.950Z,3.83
2018-07-16T06:46:12.966Z,4.80
2018-07-16T06:48:41.275Z,4.07
2018-07-16T06:51:09.533Z,4.03
2018-07-16T06:53:37.831Z,5.03
2018-07-16T06:56:06.293Z,3.60
2018-07-16T06:58:34.668Z,4.30
2018-07-16T07:01:03.145Z,3.70
2018-07-16T07:03:31.425Z,3.60
2018-07-16T07:05:59.689Z,3.93
2018-07-16T07:08:27.985Z,3.50
2018-07-16T07:10:57.178Z,5.43
2018-07-16T07:13:25.429Z,3.30
2018-07-16T07:15:53.711Z,3.70
2018-07-16T07:18:21.979Z,3.67
2018-07-16T07:20:50.296Z,3.60
2018-07-16T07:23:18.587Z,3.40
2018-07-16T07:25:46.978Z,3.33
2018-07-16T07:28:15.274Z,3.33
2018-07-16T07:30:43.523Z,4.13
2018-07-16T07:33:11.822Z,4.17
2018-07-16T07:35:40.226Z,4.00
2018-07-16T07:38:08.509Z,3.60
2018-07-16T07:40:36.817Z,4.03
2018-07-16T07:43:05.127Z,4.20
2018-07-16T07:45:33.406Z,4.00
2018-07-16T07:48:01.746Z,4.30
2018-07-16T07:50:30.136Z,3.90
2018-07-16T07:52:58.401Z,3.67
2018-07-16T07:55:27.135Z,4.63
2018-07-16T07:57:54.992Z,4.90
2018-07-16T08:00:23.630Z,3.67
2018-07-16T08:02:51.935Z,4.43
2018-07-16T08:05:20.239Z,3.47
2018-07-16T08:07:48.521Z,3.43
2018-07-16T08:10:16.835Z,4.17
2018-07-16T08:12:45.123Z,3.67
2018-07-16T08:15:13.422Z,3.63
2018-07-16T08:17:41.689Z,3.90
2018-07-16T08:20:09.994Z,3.87
2018-07-16T08:22:38.311Z,3.67
2018-07-16T08:25:06.585Z,3.50
2018-07-16T08:27:34.917Z,4.93
2018-07-16T08:30:02.931Z,4.57
2018-07-16T08:32:31.249Z,4.83
2018-07-16T08:34:59.503Z,3.90
2018-07-16T08:37:27.827Z,3.70
2018-07-16T08:39:56.091Z,3.77
2018-07-16T08:42:24.422Z,3.40
2018-07-16T08:44:52.650Z,3.77
2018-07-16T08:47:20.966Z,4.07
2018-07-16T08:49:49.261Z,4.57
2018-07-16T08:52:17.526Z,5.00
2018-07-16T08:54:45.811Z,3.70
2018-07-16T08:57:14.086Z,4.43
2018-07-16T08:59:42.353Z,4.80
2018-07-16T09:02:10.770Z,3.60
2018-07-16T09:04:39.033Z,3.57
2018-07-16T09:07:07.383Z,3.97
2018-07-16T09:09:35.639Z,3.37
2018-07-16T09:12:03.965Z,3.43
2018-07-16T09:14:32.253Z,3.80
2018-07-16T09:17:00.615Z,3.57
2018-07-16T09:19:28.822Z,4.03
2018-07-16T09:21:57.089Z,3.93
2018-07-16T09:24:25.361Z,3.80
2018-07-16T09:26:53.659Z,3.83
2018-07-16T09:29:22.164Z,3.53
2018-07-16T09:31:50.455Z,3.37
2018-07-16T09:34:18.738Z,3.67
2018-07-16T09:36:47.030Z,3.73
2018-07-16T09:39:15.336Z,3.97
2018-07-16T09:41:43.567Z,3.93
2018-07-16T09:44:11.838Z,3.33
2018-07-16T09:46:40.142Z,4.20
2018-07-16T09:49:08.567Z,4.17
2018-07-16T09:51:36.858Z,4.50
2018-07-16T09:54:05.141Z,3.73
2018-07-16T09:56:33.473Z,4.17
2018-07-16T09:59:01.778Z,3.80
2018-07-16T10:01:35.567Z,3.90
2018-07-16T10:04:03.967Z,4.10
2018-07-16T10:06:32.261Z,3.60
2018-07-16T10:09:00.555Z,3.70
2018-07-16T10:11:28.837Z,3.70
2018-07-16T10:13:57.141Z,3.80
2018-07-16T10:16:25.423Z,4.23
2018-07-16T10:18:53.693Z,4.53
2018-07-16T10:21:22.058Z,3.83
2018-07-16T10:23:50.473Z,4.30
2018-07-16T10:26:18.767Z,5.30
2018-07-16T10:28:47.034Z,5.23
2018-07-16T10:31:15.345Z,5.50
2018-07-16T10:33:43.669Z,5.00
2018-07-16T10:36:11.645Z,4.83
2018-07-16T10:38:39.932Z,5.20
2018-07-16T10:41:08.228Z,4.70
2018-07-16T10:43:36.557Z,4.40
2018-07-16T10:46:04.850Z,4.47
2018-07-16T10:48:33.121Z,4.90
2018-07-16T10:51:01.602Z,4.90
2018-07-16T10:53:30.266Z,5.17
2018-07-16T10:55:58.388Z,4.73
2018-07-16T10:58:26.673Z,4.90
2018-07-16T11:00:54.961Z,5.33
2018-07-16T11:03:23.251Z,5.07
2018-07-16T11:05:51.801Z,5.03
2018-07-16T11:08:20.086Z,5.50
2018-07-16T11:10:48.350Z,4.90
2018-07-16T11:13:16.636Z,4.93
2018-07-16T11:15:44.921Z,4.80
2018-07-16T11:18:13.198Z,4.53
2018-07-16T11:20:41.475Z,4.20
2018-07-16T11:23:09.752Z,4.67
2018-07-16T11:25:38.024Z,4.27
2018-07-16T11:28:06.309Z,4.60
2018-07-16T11:30:34.640Z,4.20
2018-07-16T11:33:02.968Z,4.33
2018-07-16T11:35:30.993Z,4.40
2018-07-16T11:37:59.559Z,4.47
2018-07-16T11:40:27.849Z,4.20
2018-07-16T11:42:56.117Z,4.30
2018-07-16T11:45:24.363Z,4.00
2018-07-16T11:47:52.624Z,4.07
2018-07-16T11:50:20.895Z,3.77
2018-07-16T11:52:49.345Z,3.90
2018-07-16T11:55:17.682Z,3.80
2018-07-16T11:57:45.954Z,3.80
2018-07-16T12:00:14.293Z,3.93
2018-07-16T12:02:42.550Z,3.50
2018-07-16T12:05:10.921Z,3.80
2018-07-16T12:07:39.242Z,3.90
2018-07-16T12:10:07.593Z,3.83
2018-07-16T12:12:35.915Z,3.50
2018-07-16T12:15:04.261Z,3.27
2018-07-16T12:17:32.792Z,3.30
2018-07-16T12:20:01.219Z,3.40
2018-07-16T12:22:29.480Z,2.80
2018-07-16T12:24:57.773Z,3.13
2018-07-16T12:27:26.064Z,3.20
2018-07-16T12:29:54.436Z,2.80
2018-07-16T12:32:22.717Z,2.80
2018-07-16T12:34:52.473Z,3.10
2018-07-16T12:37:20.833Z,3.10
2018-07-16T12:39:49.145Z,3.10
2018-07-16T12:42:17.453Z,2.80
2018-07-16T12:44:45.761Z,2.60
2018-07-16T12:47:14.063Z,2.80
2018-07-16T12:49:42.337Z,3.07
2018-07-16T12:52:10.611Z,2.90
2018-07-16T12:54:38.884Z,2.80
2018-07-16T12:57:07.168Z,2.43
2018-07-16T12:59:35.437Z,2.80
2018-07-16T13:02:03.738Z,2.90
2018-07-16T13:04:32.273Z,2.53
2018-07-16T13:07:00.561Z,2.90
2018-07-16T13:09:28.828Z,2.80
2018-07-16T13:11:57.111Z,2.83
2018-07-16T13:14:25.370Z,2.50
2018-07-16T13:16:53.664Z,2.73
2018-07-16T13:19:21.918Z,2.83
2018-07-16T13:21:50.177Z,2.83
2018-07-16T13:24:18.449Z,2.93
2018-07-16T13:26:46.781Z,3.00
2018-07-16T13:29:15.086Z,2.40
2018-07-16T13:31:43.346Z,2.93
2018-07-16T13:34:11.602Z,2.40
2018-07-16T13:36:39.937Z,2.30
2018-07-16T13:39:09.197Z,2.73
2018-07-16T13:41:37.464Z,2.37
2018-07-16T13:44:05.768Z,2.50
2018-07-16T13:46:34.256Z,2.70
2018-07-16T13:49:02.438Z,2.60
2018-07-16T13:51:30.980Z,2.57
2018-07-16T13:53:59.411Z,2.37
2018-07-16T13:56:27.449Z,2.50
2018-07-16T13:58:55.978Z,2.53
2018-07-16T14:01:24.273Z,2.40
2018-07-16T14:03:52.579Z,2.43
2018-07-16T14:06:20.865Z,2.60
2018-07-16T14:08:49.124Z,2.30
2018-07-16T14:11:17.371Z,2.20
2018-07-16T14:13:45.650Z,2.30
2018-07-16T14:16:13.918Z,2.47
2018-07-16T14:18:42.158Z,2.60
2018-07-16T14:21:10.475Z,2.40
2018-07-16T14:23:38.745Z,2.70
2018-07-16T14:26:07.086Z,2.50
2018-07-16T14:28:35.325Z,2.10
2018-07-16T14:31:03.625Z,2.47
2018-07-16T14:33:31.877Z,2.50
2018-07-16T14:36:00.159Z,2.37
2018-07-16T14:38:28.464Z,2.40
2018-07-16T14:40:56.444Z,2.60
2018-07-16T14:43:24.753Z,2.67
2018-07-16T14:45:53.138Z,2.20
2018-07-16T14:48:21.426Z,2.50
2018-07-16T14:50:49.714Z,2.60
2018-07-16T14:53:17.957Z,2.47
2018-07-16T14:55:46.289Z,2.60
2018-07-16T14:58:14.573Z,2.47
2018-07-16T15:00:43.248Z,2.60
2018-07-16T15:03:11.627Z,2.50
2018-07-16T15:05:39.894Z,2.50
2018-07-16T15:08:08.179Z,2.67
2018-07-16T15:10:36.447Z,2.73
2018-07-16T15:13:05.502Z,2.60
2018-07-16T15:15:33.737Z,2.53
2018-07-16T15:18:02.093Z,2.27
2018-07-16T15:20:30.493Z,2.30
2018-07-16T15:22:58.705Z,2.50
2018-07-16T15:25:26.997Z,2.50
2018-07-16T15:27:55.277Z,2.80
2018-07-16T15:30:23.537Z,2.40
2018-07-16T15:32:51.841Z,3.17
2018-07-16T15:35:20.094Z,2.27
2018-07-16T15:37:48.379Z,2.60
2018-07-16T15:40:16.645Z,3.07
2018-07-16T15:42:44.914Z,2.70
2018-07-16T15:45:13.187Z,2.77
2018-07-16T15:47:41.438Z,2.57
2018-07-16T15:50:09.711Z,2.50
2018-07-16T15:52:37.949Z,2.43
2018-07-16T15:57:41.941Z,3.00
2018-07-16T16:00:10.197Z,3.30
2018-07-16T16:02:38.521Z,2.67
2018-07-16T16:05:06.861Z,2.30
2018-07-16T16:07:35.150Z,2.40
2018-07-16T16:10:04.113Z,2.90
2018-07-16T16:12:32.384Z,2.33
2018-07-16T16:15:00.689Z,3.00
2018-07-16T16:17:29.032Z,2.70
2018-07-16T16:19:57.644Z,2.40
2018-07-16T16:22:26.015Z,2.50
2018-07-16T16:24:55.101Z,2.60
2018-07-16T16:27:23.448Z,2.67
2018-07-16T16:29:51.710Z,2.77
2018-07-16T16:32:19.993Z,2.77
2018-07-16T16:34:48.253Z,2.47
2018-07-16T16:37:16.513Z,4.07
2018-07-16T16:39:44.822Z,2.67
2018-07-16T16:42:13.231Z,3.70
2018-07-16T16:44:41.374Z,3.50
2018-07-16T16:47:09.961Z,3.13
2018-07-16T16:49:38.217Z,3.30
2018-07-16T16:52:06.522Z,3.17
2018-07-16T16:54:34.814Z,3.00
2018-07-16T16:57:03.215Z,2.77
2018-07-16T16:59:31.646Z,3.07
2018-07-16T17:02:00.159Z,2.87
2018-07-16T17:04:28.466Z,2.90
2018-07-16T17:06:56.722Z,3.20
2018-07-16T17:09:25.033Z,3.53
2018-07-16T17:11:53.333Z,3.40
2018-07-16T17:14:21.537Z,2.87
2018-07-16T17:16:49.797Z,3.30
2018-07-16T17:19:18.086Z,2.93
2018-07-16T17:21:46.382Z,3.30
2018-07-16T17:24:14.669Z,2.63
2018-07-16T17:26:42.962Z,3.30
2018-07-16T17:29:11.253Z,3.07
2018-07-16T17:31:39.746Z,3.03
2018-07-16T17:34:08.022Z,3.57
2018-07-16T17:36:36.305Z,2.93
2018-07-16T17:39:06.966Z,3.17
2018-07-16T17:41:35.241Z,3.20
2018-07-16T17:44:03.674Z,3.13
2018-07-16T17:46:32.095Z,2.90
2018-07-16T17:49:00.432Z,3.27
2018-07-16T17:51:28.725Z,3.53
2018-07-16T17:53:57.061Z,3.07
2018-07-16T17:56:25.454Z,3.00
2018-07-16T17:58:53.710Z,3.10
2018-07-16T18:01:22.023Z,3.30
2018-07-16T18:03:50.273Z,3.50
2018-07-16T18:06:18.566Z,3.20
2018-07-16T18:08:46.873Z,3.20
2018-07-16T18:11:15.181Z,2.93
2018-07-16T18:13:43.433Z,3.30
2018-07-16T18:16:11.766Z,3.67
2018-07-16T18:18:40.121Z,3.40
2018-07-16T18:21:08.558Z,3.37
2018-07-16T18:23:36.840Z,3.33
2018-07-16T18:26:05.218Z,3.43
2018-07-16T18:28:33.536Z,3.20
2018-07-16T18:31:02.469Z,3.53
2018-07-16T18:33:31.191Z,3.20
2018-07-16T18:35:59.482Z,3.13
2018-07-16T18:38:27.812Z,3.47
2018-07-16T18:40:56.141Z,3.40
2018-07-16T18:43:24.535Z,3.20
2018-07-16T18:45:52.820Z,3.70
2018-07-16T18:48:21.117Z,2.93
2018-07-16T18:50:49.398Z,3.40
2018-07-16T18:53:17.697Z,3.07
2018-07-16T18:55:46.305Z,3.27
2018-07-16T18:58:14.679Z,3.40
2018-07-16T19:00:42.989Z,3.40
2018-07-16T19:03:11.277Z,3.40
2018-07-16T19:05:39.626Z,3.50
2018-07-16T19:08:07.965Z,3.70
2018-07-16T19:10:36.330Z,3.90
2018-07-16T19:13:04.645Z,3.53
2018-07-16T19:15:32.896Z,3.27
2018-07-16T19:18:01.168Z,3.20
2018-07-16T19:20:29.515Z,3.20
2018-07-16T19:22:57.733Z,3.00
2018-07-16T19:25:26.019Z,3.13
2018-07-16T19:27:54.298Z,3.37
2018-07-16T19:30:22.572Z,3.07
2018-07-16T19:32:50.829Z,3.80
2018-07-16T19:35:19.126Z,3.13
2018-07-16T19:37:47.443Z,3.40
2018-07-16T19:40:15.673Z,3.17
2018-07-16T19:42:43.983Z,3.17
2018-07-16T19:45:12.266Z,3.40
2018-07-16T19:47:40.570Z,3.30
2018-07-16T19:50:08.921Z,3.07
2018-07-16T19:52:37.312Z,3.30
2018-07-16T19:55:05.968Z,3.50
2018-07-16T19:57:34.465Z,3.30
2018-07-16T20:00:02.810Z,3.50
2018-07-16T20:02:31.156Z,3.13
2018-07-16T20:04:59.453Z,3.23
2018-07-16T20:07:27.717Z,3.07
2018-07-16T20:09:55.999Z,3.20
2018-07-16T20:12:32.869Z,3.47
2018-07-16T20:15:01.969Z,3.33
2018-07-16T20:17:30.537Z,3.50
2018-07-16T20:19:59.256Z,3.27
2018-07-16T20:22:27.905Z,3.30
2018-07-16T20:24:56.277Z,3.93
2018-07-16T20:27:24.603Z,3.53
2018-07-16T20:29:53.455Z,2.90
2018-07-16T20:32:22.392Z,3.67
2018-07-16T20:34:51.491Z,3.30
2018-07-16T20:37:19.813Z,3.57
2018-07-16T20:39:48.107Z,3.17
2018-07-16T20:42:16.429Z,3.10
2018-07-16T20:44:44.717Z,3.17
2018-07-16T20:47:13.032Z,3.30
2018-07-16T20:49:41.326Z,2.93
2018-07-16T20:52:09.882Z,3.47
2018-07-16T20:54:38.190Z,3.07
2018-07-16T20:57:06.528Z,3.40
2018-07-16T20:59:34.821Z,3.37
2018-07-16T21:02:03.118Z,3.63
2018-07-16T21:04:31.361Z,3.73
2018-07-16T21:06:59.642Z,3.43
2018-07-16T21:09:28.026Z,3.87
2018-07-16T21:11:56.310Z,3.43
2018-07-16T21:14:24.564Z,3.33
2018-07-16T21:16:52.845Z,3.87
2018-07-16T21:19:21.147Z,4.10
2018-07-16T21:21:49.181Z,3.83
2018-07-16T21:24:17.473Z,3.97
2018-07-16T21:26:46.077Z,3.80
2018-07-16T21:29:14.568Z,3.50
2018-07-16T21:31:43.702Z,4.17
2018-07-16T21:34:12.205Z,3.90
2018-07-16T21:36:40.489Z,4.00
2018-07-16T21:39:08.831Z,4.33
2018-07-16T21:41:37.106Z,3.83
2018-07-16T21:44:05.660Z,3.97
2018-07-16T21:46:35.413Z,4.10
2018-07-16T21:49:04.338Z,3.70
2018-07-16T21:51:33.010Z,3.53
2018-07-16T21:54:01.648Z,3.83
2018-07-16T21:56:30.154Z,3.70
2018-07-16T21:58:58.646Z,3.47
2018-07-16T22:01:27.324Z,3.80
2018-07-16T22:03:57.132Z,3.63
2018-07-16T22:06:25.586Z,3.80
2018-07-16T22:08:54.261Z,3.20
2018-07-16T22:11:23.658Z,4.03
2018-07-16T22:13:52.433Z,3.70
2018-07-16T22:16:21.024Z,3.60
2018-07-16T22:18:49.570Z,3.70
2018-07-16T22:21:17.844Z,3.70
2018-07-16T22:23:46.155Z,3.23
2018-07-16T22:26:14.486Z,3.30
2018-07-16T22:28:42.821Z,4.03
2018-07-16T22:31:11.165Z,3.30
2018-07-16T22:33:39.499Z,2.93
2018-07-16T22:36:07.951Z,3.17
2018-07-16T22:38:36.281Z,3.40
2018-07-16T22:41:04.543Z,3.20
2018-07-16T22:43:32.853Z,3.50
2018-07-16T22:46:01.195Z,3.13
2018-07-16T22:48:29.481Z,3.03
2018-07-16T22:50:57.769Z,3.20
2018-07-16T22:53:26.461Z,3.23
2018-07-16T22:55:54.716Z,2.90
2018-07-16T22:58:23.017Z,3.40
2018-07-16T23:00:51.277Z,3.27
2018-07-16T23:03:19.554Z,2.73
2018-07-16T23:05:47.850Z,3.00
2018-07-16T23:08:17.305Z,3.33
2018-07-16T23:10:45.594Z,2.77
2018-07-16T23:13:13.888Z,3.00
2018-07-16T23:15:42.218Z,3.23
2018-07-16T23:18:10.643Z,2.73
2018-07-16T23:20:39.135Z,2.97
2018-07-16T23:23:07.402Z,2.90
2018-07-16T23:25:35.688Z,3.00
2018-07-16T23:28:03.979Z,3.17
2018-07-16T23:30:32.241Z,2.70
2018-07-16T23:33:00.514Z,3.00
2018-07-16T23:35:28.790Z,2.87
2018-07-16T23:37:57.089Z,2.97
2018-07-16T23:40:25.334Z,3.03
2018-07-16T23:42:53.794Z,2.73
2018-07-16T23:45:22.060Z,2.67
2018-07-16T23:47:50.853Z,2.70
2018-07-16T23:50:19.188Z,2.83
2018-07-16T23:52:47.459Z,3.30
2018-07-16T23:55:15.737Z,2.77
2018-07-16T23:57:44.022Z,2.67
